createdAt,value
2023-01-25T00:00:51.786Z,3.90
2023-01-25T00:03:18.613Z,3.60
2023-01-25T00:05:45.389Z,3.80
2023-01-25T00:08:12.097Z,3.90
2023-01-25T00:10:38.789Z,3.90
2023-01-25T00:13:05.540Z,3.90
2023-01-25T00:15:32.213Z,4.00
2023-01-25T00:17:58.880Z,4.00
2023-01-25T00:20:25.609Z,4.00
2023-01-25T00:22:52.280Z,4.10
2023-01-25T00:25:18.909Z,4.00
2023-01-25T00:27:45.663Z,4.10
2023-01-25T00:30:12.498Z,4.20
2023-01-25T00:32:47.520Z,4.20
2023-01-25T00:35:14.264Z,4.20
2023-01-25T00:37:42.609Z,4.00
2023-01-25T00:40:10.028Z,4.00
2023-01-25T00:42:36.704Z,3.90
2023-01-25T00:45:03.517Z,4.10
2023-01-25T00:47:30.244Z,4.10
2023-01-25T00:49:56.889Z,4.20
2023-01-25T00:52:23.661Z,4.10
2023-01-25T00:54:50.354Z,4.20
2023-01-25T00:57:17.022Z,4.10
2023-01-25T00:59:44.806Z,4.20
2023-01-25T01:02:11.969Z,4.10
2023-01-25T01:04:38.786Z,4.20
2023-01-25T01:07:05.583Z,4.20
2023-01-25T01:09:32.529Z,4.30
2023-01-25T01:11:59.179Z,4.20
2023-01-25T01:14:25.825Z,4.30
2023-01-25T01:16:52.498Z,4.10
2023-01-25T01:19:19.191Z,4.20
2023-01-25T01:21:45.905Z,4.20
2023-01-25T01:24:12.691Z,4.10
2023-01-25T01:26:39.454Z,4.10
2023-01-25T01:29:06.185Z,4.10
2023-01-25T01:31:33.022Z,4.10
2023-01-25T01:34:01.190Z,4.10
2023-01-25T01:36:28.654Z,4.20
2023-01-25T01:38:55.405Z,4.30
2023-01-25T01:41:22.221Z,4.30
2023-01-25T01:43:48.940Z,4.30
2023-01-25T01:46:17.179Z,4.30
2023-01-25T01:48:45.400Z,4.30
2023-01-25T01:51:15.401Z,4.30
2023-01-25T01:53:43.357Z,4.20
2023-01-25T01:56:11.255Z,4.30
2023-01-25T01:58:37.957Z,4.10
2023-01-25T02:01:04.750Z,4.20
2023-01-25T02:03:31.468Z,4.20
2023-01-25T02:05:58.228Z,4.20
2023-01-25T02:08:24.964Z,4.30
2023-01-25T02:10:51.689Z,4.30
2023-01-25T02:13:18.675Z,4.20
2023-01-25T02:15:46.447Z,4.20
2023-01-25T02:18:13.298Z,4.20
2023-01-25T02:20:40.972Z,4.20
2023-01-25T02:23:19.431Z,4.20
2023-01-25T02:25:46.233Z,4.30
2023-01-25T02:28:26.740Z,4.20
2023-01-25T02:30:53.540Z,4.30
2023-01-25T02:33:22.485Z,4.20
2023-01-25T02:35:51.350Z,4.10
2023-01-25T02:38:18.555Z,4.20
2023-01-25T02:40:46.423Z,4.30
2023-01-25T02:43:13.141Z,4.10
2023-01-25T02:45:39.812Z,3.90
2023-01-25T02:48:06.657Z,4.00
2023-01-25T02:50:33.329Z,4.20
2023-01-25T02:52:59.985Z,4.30
2023-01-25T02:55:26.691Z,4.30
2023-01-25T02:57:53.427Z,4.30
2023-01-25T03:00:20.191Z,4.30
2023-01-25T03:02:47.043Z,4.30
2023-01-25T03:05:13.933Z,4.20
2023-01-25T03:07:40.676Z,4.20
2023-01-25T03:10:07.552Z,4.20
2023-01-25T03:12:34.240Z,4.20
2023-01-25T03:15:00.936Z,4.30
2023-01-25T03:17:27.742Z,4.20
2023-01-25T03:19:54.483Z,4.20
2023-01-25T03:22:21.172Z,4.30
2023-01-25T03:24:47.981Z,4.30
2023-01-25T03:27:16.841Z,4.30
2023-01-25T03:29:43.594Z,4.20
2023-01-25T03:32:10.568Z,4.20
2023-01-25T03:34:37.322Z,4.20
2023-01-25T03:37:04.067Z,4.30
2023-01-25T03:39:30.773Z,4.40
2023-01-25T03:41:57.469Z,4.40
2023-01-25T03:44:24.199Z,4.20
2023-01-25T03:46:50.875Z,4.00
2023-01-25T03:49:18.641Z,4.30
2023-01-25T03:51:45.340Z,4.40
2023-01-25T03:54:11.988Z,4.30
2023-01-25T03:56:38.695Z,4.40
2023-01-25T03:59:05.403Z,4.10
2023-01-25T04:01:32.129Z,4.20
2023-01-25T04:03:58.825Z,4.30
2023-01-25T04:06:25.507Z,4.30
2023-01-25T04:08:52.244Z,4.20
2023-01-25T04:11:18.924Z,4.10
2023-01-25T04:13:45.557Z,4.20
2023-01-25T04:16:12.652Z,4.30
2023-01-25T04:18:40.041Z,4.20
2023-01-25T04:21:06.826Z,4.30
2023-01-25T04:23:33.496Z,4.30
2023-01-25T04:26:01.006Z,4.30
2023-01-25T04:28:27.791Z,4.10
2023-01-25T04:30:54.876Z,4.30
2023-01-25T04:33:21.580Z,4.30
2023-01-25T04:35:48.289Z,4.30
2023-01-25T04:38:14.937Z,4.40
2023-01-25T04:40:42.120Z,4.40
2023-01-25T04:43:08.927Z,4.30
2023-01-25T04:45:36.407Z,4.00
2023-01-25T04:48:03.847Z,3.90
2023-01-25T04:50:30.621Z,3.70
2023-01-25T04:52:57.269Z,3.70
2023-01-25T04:55:23.988Z,4.00
2023-01-25T04:57:50.984Z,4.10
2023-01-25T05:00:18.296Z,4.10
2023-01-25T05:02:45.165Z,4.20
2023-01-25T05:05:12.104Z,4.10
2023-01-25T05:07:39.165Z,4.10
2023-01-25T05:10:06.152Z,4.10
2023-01-25T05:12:32.876Z,4.20
2023-01-25T05:14:59.577Z,4.10
2023-01-25T05:17:26.220Z,4.20
2023-01-25T05:19:52.947Z,4.20
2023-01-25T05:22:20.986Z,4.30
2023-01-25T05:24:47.936Z,4.20
2023-01-25T05:27:15.703Z,4.20
2023-01-25T05:29:42.987Z,4.10
2023-01-25T05:32:14.045Z,4.10
2023-01-25T05:34:40.737Z,4.00
2023-01-25T05:37:07.785Z,3.90
2023-01-25T05:39:34.469Z,3.90
2023-01-25T05:42:01.200Z,3.90
2023-01-25T05:44:27.942Z,4.00
2023-01-25T05:46:54.626Z,4.10
2023-01-25T05:49:21.308Z,4.00
2023-01-25T05:51:49.119Z,4.10
2023-01-25T05:54:16.302Z,4.10
2023-01-25T05:56:43.138Z,4.00
2023-01-25T05:59:10.079Z,4.00
2023-01-25T06:01:36.708Z,4.10
2023-01-25T06:04:03.439Z,4.00
2023-01-25T06:06:30.082Z,4.00
2023-01-25T06:08:56.822Z,4.00
2023-01-25T06:11:23.676Z,4.20
2023-01-25T06:13:50.537Z,4.20
2023-01-25T06:16:17.612Z,4.20
2023-01-25T06:18:44.428Z,4.30
2023-01-25T06:21:11.284Z,4.20
2023-01-25T06:23:38.024Z,4.10
2023-01-25T06:26:05.902Z,4.20
2023-01-25T06:28:32.962Z,4.20
2023-01-25T06:31:08.848Z,4.10
2023-01-25T06:33:35.709Z,4.10
2023-01-25T06:36:03.335Z,4.00
2023-01-25T06:38:30.834Z,4.10
2023-01-25T06:41:04.299Z,4.10
2023-01-25T06:43:31.301Z,4.00
2023-01-25T06:45:58.721Z,4.20
2023-01-25T06:48:25.810Z,4.30
2023-01-25T06:50:59.529Z,4.20
2023-01-25T06:53:27.222Z,4.20
2023-01-25T06:55:57.767Z,4.30
2023-01-25T06:58:24.513Z,4.30
2023-01-25T07:00:51.271Z,4.40
2023-01-25T07:03:17.997Z,4.30
2023-01-25T07:05:44.629Z,4.30
2023-01-25T07:08:11.384Z,4.30
2023-01-25T07:10:38.028Z,4.40
2023-01-25T07:13:04.671Z,4.40
2023-01-25T07:15:31.311Z,4.50
2023-01-25T07:18:03.177Z,4.40
2023-01-25T07:20:38.101Z,4.40
2023-01-25T07:23:04.774Z,4.50
2023-01-25T07:25:31.495Z,4.30
2023-01-25T07:27:58.229Z,4.20
2023-01-25T07:30:24.942Z,4.30
2023-01-25T07:32:51.693Z,4.40
2023-01-25T07:35:18.844Z,4.50
2023-01-25T07:37:45.585Z,4.50
2023-01-25T07:40:13.478Z,4.70
2023-01-25T07:42:40.204Z,4.60
2023-01-25T07:45:07.981Z,4.70
2023-01-25T07:47:37.069Z,4.70
2023-01-25T07:50:04.662Z,4.70
2023-01-25T07:52:31.465Z,4.70
2023-01-25T07:54:58.237Z,4.70
2023-01-25T07:57:25.557Z,4.80
2023-01-25T07:59:52.267Z,4.80
2023-01-25T08:02:18.951Z,4.70
2023-01-25T08:04:45.712Z,4.60
2023-01-25T08:07:12.864Z,4.70
2023-01-25T08:09:39.803Z,4.70
2023-01-25T08:12:08.618Z,4.70
2023-01-25T08:14:35.468Z,4.70
2023-01-25T08:17:02.158Z,4.60
2023-01-25T08:19:28.956Z,4.70
2023-01-25T08:21:55.832Z,4.70
2023-01-25T08:24:24.582Z,4.90
2023-01-25T08:26:52.204Z,5.00
2023-01-25T08:29:19.239Z,5.00
2023-01-25T08:31:45.956Z,4.80
2023-01-25T08:34:12.757Z,4.60
2023-01-25T08:36:39.687Z,4.80
2023-01-25T08:39:06.977Z,4.90
2023-01-25T08:41:34.079Z,4.90
2023-01-25T08:44:00.973Z,5.10
2023-01-25T08:46:30.279Z,4.80
2023-01-25T08:48:58.806Z,4.90
2023-01-25T08:51:25.574Z,4.70
2023-01-25T08:53:52.271Z,4.70
2023-01-25T08:56:19.023Z,4.80
2023-01-25T08:58:46.281Z,5.00
2023-01-25T09:01:13.633Z,5.00
2023-01-25T09:03:41.091Z,5.00
2023-01-25T09:06:08.023Z,4.80
2023-01-25T09:08:34.916Z,4.70
2023-01-25T09:11:05.173Z,5.00
2023-01-25T09:13:31.931Z,5.10
2023-01-25T09:15:59.535Z,5.10
2023-01-25T09:18:26.750Z,5.40
2023-01-25T09:20:53.463Z,5.10
2023-01-25T09:23:22.995Z,5.10
2023-01-25T09:25:59.581Z,5.20
2023-01-25T09:28:26.917Z,5.00
2023-01-25T09:31:20.528Z,5.30
2023-01-25T09:33:48.680Z,5.40
2023-01-25T09:36:15.778Z,5.20
2023-01-25T09:38:42.506Z,5.30
2023-01-25T09:41:32.590Z,5.10
2023-01-25T09:44:13.663Z,5.10
2023-01-25T09:46:42.161Z,5.40
2023-01-25T09:49:12.600Z,5.60
2023-01-25T09:51:51.486Z,5.70
2023-01-25T09:55:08.569Z,5.70
2023-01-25T09:57:36.995Z,5.70
2023-01-25T10:00:08.451Z,5.50
2023-01-25T10:02:40.595Z,5.60
2023-01-25T10:05:23.681Z,5.60
2023-01-25T10:07:53.923Z,5.50
2023-01-25T10:10:28.709Z,5.20
2023-01-25T10:12:55.461Z,5.00
2023-01-25T10:15:23.549Z,5.00
2023-01-25T10:17:58.501Z,5.30
2023-01-25T10:20:25.944Z,5.30
2023-01-25T10:22:55.133Z,5.40
2023-01-25T10:25:40.348Z,5.30
2023-01-25T10:28:17.808Z,5.00
2023-01-25T10:30:44.658Z,5.20
2023-01-25T10:33:12.359Z,4.60
2023-01-25T10:35:42.692Z,5.00
2023-01-25T10:38:34.330Z,5.10
2023-01-25T10:41:02.811Z,5.30
2023-01-25T10:43:29.608Z,5.20
2023-01-25T10:45:56.530Z,5.50
2023-01-25T10:48:24.212Z,5.50
2023-01-25T10:50:51.776Z,5.30
2023-01-25T10:53:44.245Z,5.30
2023-01-25T10:56:10.952Z,5.30
2023-01-25T10:58:37.719Z,5.20
2023-01-25T11:01:06.967Z,5.30
2023-01-25T11:03:34.759Z,5.10
2023-01-25T11:06:01.711Z,5.20
2023-01-25T11:08:31.538Z,5.30
2023-01-25T11:10:58.767Z,5.40
2023-01-25T11:13:26.051Z,5.60
2023-01-25T11:15:53.540Z,5.80
2023-01-25T11:18:23.417Z,5.80
2023-01-25T11:21:08.828Z,5.80
2023-01-25T11:23:35.594Z,5.70
2023-01-25T11:26:11.149Z,5.60
2023-01-25T11:28:37.810Z,5.80
2023-01-25T11:31:05.810Z,5.70
2023-01-25T11:33:32.573Z,5.70
2023-01-25T11:36:18.094Z,5.60
2023-01-25T11:38:48.337Z,5.70
2023-01-25T11:41:23.657Z,5.70
2023-01-25T11:44:09.142Z,5.50
2023-01-25T11:46:44.965Z,5.50
2023-01-25T11:49:15.186Z,5.10
2023-01-25T11:51:41.892Z,4.80
2023-01-25T11:54:27.483Z,5.10
2023-01-25T11:56:54.173Z,5.10
2023-01-25T11:59:34.097Z,4.90
2023-01-25T12:02:26.787Z,5.00
2023-01-25T12:05:12.616Z,5.10
2023-01-25T12:07:49.106Z,5.10
2023-01-25T12:10:24.874Z,5.20
2023-01-25T12:12:51.546Z,5.30
2023-01-25T12:15:32.087Z,5.30
2023-01-25T12:18:03.172Z,5.20
2023-01-25T12:20:48.588Z,5.20
2023-01-25T12:23:21.388Z,4.90
2023-01-25T12:25:50.956Z,5.00
2023-01-25T12:28:21.603Z,5.10
2023-01-25T12:30:48.378Z,5.00
2023-01-25T12:33:15.966Z,5.20
2023-01-25T12:36:00.127Z,5.30
2023-01-25T12:38:28.264Z,5.40
2023-01-25T12:40:56.688Z,5.40
2023-01-25T12:43:26.479Z,5.30
2023-01-25T12:45:53.219Z,5.20
2023-01-25T12:48:27.745Z,5.30
2023-01-25T12:50:55.620Z,5.30
2023-01-25T12:53:25.152Z,5.30
2023-01-25T12:55:51.964Z,5.10
2023-01-25T12:58:23.850Z,5.00
2023-01-25T13:01:05.585Z,5.10
2023-01-25T13:03:44.430Z,4.90
2023-01-25T13:06:19.289Z,4.90
2023-01-25T13:08:48.647Z,4.70
2023-01-25T13:11:30.552Z,5.00
2023-01-25T13:14:23.685Z,5.10
2023-01-25T13:17:01.495Z,5.10
2023-01-25T13:19:36.075Z,5.00
2023-01-25T13:22:02.838Z,5.00
2023-01-25T13:24:30.252Z,5.00
2023-01-25T13:26:57.168Z,5.10
2023-01-25T13:29:35.817Z,5.10
2023-01-25T13:32:02.889Z,5.10
2023-01-25T13:34:39.394Z,5.20
2023-01-25T13:37:21.694Z,5.20
2023-01-25T13:39:49.190Z,5.20
2023-01-25T13:42:15.867Z,5.20
2023-01-25T13:44:43.162Z,5.20
2023-01-25T13:47:13.812Z,5.10
2023-01-25T13:49:41.056Z,5.00
2023-01-25T13:52:08.062Z,5.20
2023-01-25T13:54:38.340Z,5.10
2023-01-25T13:57:05.753Z,5.10
2023-01-25T13:59:32.581Z,5.20
2023-01-25T14:01:59.354Z,5.20
2023-01-25T14:04:26.214Z,5.30
2023-01-25T14:06:56.050Z,5.20
2023-01-25T14:09:22.880Z,5.20
2023-01-25T14:11:53.801Z,5.10
2023-01-25T14:14:24.459Z,5.10
2023-01-25T14:17:09.912Z,5.20
2023-01-25T14:19:37.328Z,5.10
2023-01-25T14:22:11.742Z,5.00
2023-01-25T14:24:38.528Z,5.00
2023-01-25T14:27:05.417Z,5.10
2023-01-25T14:29:33.505Z,5.10
2023-01-25T14:32:00.348Z,5.00
2023-01-25T14:34:27.117Z,5.10
2023-01-25T14:37:26.073Z,5.20
2023-01-25T14:39:52.991Z,5.20
2023-01-25T14:42:19.723Z,5.10
2023-01-25T14:44:46.359Z,5.20
2023-01-25T14:47:28.397Z,5.10
2023-01-25T14:49:55.088Z,5.10
2023-01-25T14:52:22.039Z,5.10
2023-01-25T14:54:51.789Z,5.20
2023-01-25T14:57:27.761Z,5.20
2023-01-25T14:59:54.471Z,5.00
2023-01-25T15:02:29.157Z,5.00
2023-01-25T15:04:56.668Z,5.10
2023-01-25T15:07:38.512Z,5.10
2023-01-25T15:10:15.567Z,5.00
2023-01-25T15:12:42.434Z,5.10
2023-01-25T15:15:19.022Z,5.00
2023-01-25T15:17:46.510Z,5.10
2023-01-25T15:20:28.065Z,5.10
2023-01-25T15:22:56.218Z,5.20
2023-01-25T15:25:24.291Z,5.10
2023-01-25T15:27:51.315Z,5.00
2023-01-25T15:30:18.286Z,5.00
2023-01-25T15:32:45.361Z,5.00
2023-01-25T15:35:12.976Z,5.10
2023-01-25T15:37:39.705Z,5.10
2023-01-25T15:40:07.693Z,5.10
2023-01-25T15:42:34.545Z,5.10
2023-01-25T15:45:04.821Z,5.10
2023-01-25T15:47:33.464Z,5.20
2023-01-25T15:50:00.216Z,5.20
2023-01-25T15:52:26.970Z,5.10
2023-01-25T15:55:01.410Z,5.10
2023-01-25T15:57:32.035Z,5.00
2023-01-25T15:59:59.952Z,4.90
2023-01-25T16:02:28.778Z,4.90
2023-01-25T16:04:55.561Z,4.90
2023-01-25T16:07:25.959Z,4.90
2023-01-25T16:09:52.715Z,4.90
2023-01-25T16:12:19.434Z,5.00
2023-01-25T16:14:46.169Z,5.00
2023-01-25T16:17:16.487Z,4.90
2023-01-25T16:19:43.795Z,5.00
2023-01-25T16:22:10.504Z,5.00
2023-01-25T16:24:39.496Z,4.70
2023-01-25T16:27:06.340Z,4.90
2023-01-25T16:29:33.018Z,4.90
2023-01-25T16:32:00.196Z,5.00
2023-01-25T16:34:27.084Z,5.00
2023-01-25T16:36:54.118Z,5.00
2023-01-25T16:39:21.765Z,4.80
2023-01-25T16:41:48.667Z,4.80
2023-01-25T16:44:15.588Z,4.90
2023-01-25T16:46:42.783Z,4.70
2023-01-25T16:49:14.879Z,4.80
2023-01-25T16:51:41.605Z,4.90
2023-01-25T16:54:08.583Z,4.80
2023-01-25T16:56:35.321Z,4.90
2023-01-25T16:59:02.584Z,4.80
2023-01-25T17:01:29.407Z,4.70
2023-01-25T17:03:56.247Z,4.70
2023-01-25T17:06:24.672Z,4.70
2023-01-25T17:08:51.553Z,4.70
2023-01-25T17:11:22.734Z,4.70
2023-01-25T17:13:50.286Z,4.90
2023-01-25T17:16:17.688Z,4.90
2023-01-25T17:18:44.626Z,4.90
2023-01-25T17:21:11.462Z,4.80
2023-01-25T17:23:38.263Z,4.70
2023-01-25T17:26:07.672Z,4.60
2023-01-25T17:28:34.371Z,4.70
2023-01-25T17:31:01.343Z,4.80
2023-01-25T17:33:28.333Z,4.90
2023-01-25T17:35:58.656Z,4.60
2023-01-25T17:38:25.601Z,4.70
2023-01-25T17:40:52.377Z,4.70
2023-01-25T17:43:19.276Z,4.60
2023-01-25T17:45:46.172Z,4.70
2023-01-25T17:48:13.061Z,4.70
2023-01-25T17:50:39.793Z,4.60
2023-01-25T17:53:06.661Z,4.70
2023-01-25T17:55:37.269Z,4.60
2023-01-25T17:58:03.958Z,4.70
2023-01-25T18:00:30.834Z,4.60
2023-01-25T18:02:58.551Z,4.50
2023-01-25T18:05:28.641Z,4.70
2023-01-25T18:07:55.386Z,4.70
2023-01-25T18:10:22.372Z,4.70
2023-01-25T18:13:03.571Z,4.70
2023-01-25T18:15:31.223Z,4.70
2023-01-25T18:17:58.154Z,4.70
2023-01-25T18:20:24.895Z,4.70
2023-01-25T18:22:51.773Z,4.50
2023-01-25T18:25:28.648Z,4.70
2023-01-25T18:27:55.410Z,4.60
2023-01-25T18:30:27.116Z,4.70
2023-01-25T18:32:53.817Z,4.50
2023-01-25T18:35:20.843Z,4.40
2023-01-25T18:37:47.617Z,4.40
2023-01-25T18:40:14.426Z,4.50
2023-01-25T18:42:41.069Z,4.50
2023-01-25T18:45:09.334Z,4.50
2023-01-25T18:47:36.313Z,4.40
2023-01-25T18:50:03.172Z,4.30
2023-01-25T18:52:29.958Z,4.30
2023-01-25T18:54:56.914Z,4.40
2023-01-25T18:57:23.730Z,4.30
2023-01-25T18:59:50.572Z,4.30
2023-01-25T19:02:17.521Z,4.20
2023-01-25T19:04:45.590Z,4.30
2023-01-25T19:07:12.489Z,4.30
2023-01-25T19:09:39.222Z,4.40
2023-01-25T19:12:06.247Z,4.40
2023-01-25T19:14:32.923Z,4.40
2023-01-25T19:16:59.946Z,4.30
2023-01-25T19:19:32.290Z,4.50
2023-01-25T19:21:59.579Z,4.30
2023-01-25T19:24:27.139Z,4.40
2023-01-25T19:26:56.871Z,4.40
2023-01-25T19:29:23.592Z,4.40
2023-01-25T19:31:50.714Z,4.30
2023-01-25T19:34:17.808Z,4.40
2023-01-25T19:36:49.433Z,4.30
2023-01-25T19:39:16.448Z,4.30
2023-01-25T19:41:43.164Z,4.30
2023-01-25T19:44:10.746Z,4.30
2023-01-25T19:46:37.588Z,4.20
2023-01-25T19:49:05.086Z,4.40
2023-01-25T19:51:32.627Z,4.40
2023-01-25T19:54:00.205Z,4.40
2023-01-25T19:56:27.359Z,4.20
2023-01-25T19:58:54.053Z,4.30
2023-01-25T20:01:21.580Z,4.10
2023-01-25T20:03:48.385Z,4.10
2023-01-25T20:06:15.360Z,4.10
2023-01-25T20:08:42.622Z,4.10
2023-01-25T20:11:12.987Z,4.20
2023-01-25T20:13:39.904Z,4.40
2023-01-25T20:16:07.117Z,4.10
2023-01-25T20:18:33.891Z,4.30
2023-01-25T20:21:01.931Z,4.30
2023-01-25T20:23:32.286Z,4.30
2023-01-25T20:26:06.746Z,4.30
2023-01-25T20:28:33.922Z,4.30
2023-01-25T20:31:03.826Z,4.30
2023-01-25T20:33:31.410Z,4.40
2023-01-25T20:36:01.683Z,4.40
2023-01-25T20:38:29.263Z,4.00
2023-01-25T20:41:02.542Z,4.20
2023-01-25T20:43:29.932Z,4.30
2023-01-25T20:45:56.677Z,4.20
2023-01-25T20:48:23.652Z,4.10
2023-01-25T20:50:50.381Z,4.20
2023-01-25T20:53:17.070Z,4.30
2023-01-25T20:55:47.454Z,4.40
2023-01-25T20:58:14.145Z,4.40
2023-01-25T21:00:40.821Z,4.30
2023-01-25T21:03:07.523Z,4.30
2023-01-25T21:05:34.255Z,4.20
2023-01-25T21:08:00.964Z,4.20
2023-01-25T21:10:27.737Z,4.30
2023-01-25T21:12:54.885Z,4.20
2023-01-25T21:15:21.919Z,4.20
2023-01-25T21:17:52.763Z,4.00
2023-01-25T21:20:19.577Z,4.00
2023-01-25T21:22:46.316Z,3.80
2023-01-25T21:25:13.910Z,3.80
2023-01-25T21:27:40.642Z,3.90
2023-01-25T21:30:08.683Z,3.80
2023-01-25T21:32:35.445Z,4.00
2023-01-25T21:35:02.130Z,3.90
2023-01-25T21:37:28.943Z,4.00
2023-01-25T21:39:55.583Z,4.00
2023-01-25T21:42:22.263Z,4.00
2023-01-25T21:45:07.696Z,3.90
2023-01-25T21:47:34.573Z,3.90
2023-01-25T21:50:19.660Z,3.90
2023-01-25T21:52:46.329Z,4.00
2023-01-25T21:55:13.058Z,4.00
2023-01-25T21:57:46.263Z,4.10
2023-01-25T22:00:13.783Z,4.10
2023-01-25T22:02:40.507Z,4.10
2023-01-25T22:05:07.414Z,4.00
2023-01-25T22:07:34.153Z,4.10
2023-01-25T22:10:00.957Z,4.00
2023-01-25T22:12:27.619Z,4.00
2023-01-25T22:14:54.332Z,4.00
2023-01-25T22:17:22.564Z,4.10
2023-01-25T22:19:49.287Z,4.00
2023-01-25T22:22:15.997Z,4.10
2023-01-25T22:24:42.671Z,4.00
2023-01-25T22:27:30.761Z,3.90
2023-01-25T22:29:57.504Z,3.80
2023-01-25T22:32:24.210Z,3.80
2023-01-25T22:34:50.985Z,3.80
2023-01-25T22:37:17.742Z,3.80
2023-01-25T22:39:45.573Z,3.70
2023-01-25T22:42:12.250Z,3.60
2023-01-25T22:44:38.923Z,3.70
2023-01-25T22:47:05.748Z,3.80
2023-01-25T22:49:32.440Z,3.90
2023-01-25T22:51:59.218Z,3.90
2023-01-25T22:54:25.868Z,3.70
2023-01-25T22:56:52.569Z,3.70
2023-01-25T22:59:19.417Z,3.80
2023-01-25T23:01:46.387Z,3.70
2023-01-25T23:04:13.533Z,3.70
2023-01-25T23:06:40.302Z,3.60
2023-01-25T23:09:07.045Z,3.60
2023-01-25T23:11:37.673Z,3.50
2023-01-25T23:14:26.908Z,3.60
2023-01-25T23:17:13.535Z,3.70
2023-01-25T23:19:40.223Z,3.60
2023-01-25T23:22:06.997Z,3.50
2023-01-25T23:24:33.737Z,3.60
2023-01-25T23:27:00.480Z,3.60
2023-01-25T23:29:27.132Z,3.60
2023-01-25T23:31:53.859Z,3.60
2023-01-25T23:34:20.650Z,3.60
2023-01-25T23:36:47.321Z,3.60
2023-01-25T23:39:14.214Z,3.50
2023-01-25T23:41:40.877Z,3.60
2023-01-25T23:44:09.187Z,3.60
2023-01-25T23:46:35.950Z,3.60
2023-01-25T23:49:02.630Z,3.50
2023-01-25T23:51:29.375Z,3.60
2023-01-25T23:53:57.752Z,3.70
2023-01-25T23:56:24.448Z,3.50
2023-01-25T23:58:51.207Z,3.60
